Robert G. Stone, Jr. — WDD4596 — position and weather

sailwx.info

Track history (hours):
 
Tides and Currents Weather Stations Pressure Air Temp Water Temp Dewpoint Dewpoint Depression Visibility Wind Speed Wind Dir Waves Ship Positions

Robert G. Stone, Jr.

Owner: Kirby Inland Marine, LP, Houston, TX. More information available from US FCC via Universal Licensing System and Coast Guard Vessel Documentation Center.

Last reported at 2017-Jun-13 09:01 UTC. Time now 2017-Jun-23 12:13 UTC.
Position N 29°34' W 090°31'.
Warning: this ship's position is 10 days out of date.

Length 118 m; draft 2.7 m.

Type: . MMSI: 367146780.

Date/timePositionNaut miles runAvg speedWind from/ knotsBaromVisibWave heightAir tempDewpointWater temp
2017-Jun-13 09:01N 29°34' W 090°31'0 6.3
2017-Jun-13 09:00N 29°34' W 090°31'3 6.2
2017-Jun-13 08:30N 29°34' W 090°34'2 4.9
2017-Jun-13 08:01N 29°35' W 090°37'3 5.5
2017-Jun-13 07:31N 29°36' W 090°40'2 4.5
2017-Jun-13 07:00N 29°37' W 090°42'2 4.2
2017-Jun-13 06:30N 29°35' W 090°43'2 4.2
2017-Jun-13 06:00N 29°34' W 090°45'3 6.2
2017-Jun-13 05:31N 29°32' W 090°48'4 7.4
2017-Jun-13 04:59N 29°32' W 090°52'3 6.4
2017-Jun-13 04:27N 29°34' W 090°56'54 3.5
2017-Jun-12 13:20N 29°51' W 091°54'4 6.3
2017-Jun-12 12:43N 29°50' W 091°59'1 6.3
2017-Jun-12 12:30N 29°50' W 092°00'3 6.1
2017-Jun-12 12:00N 29°49' W 092°04'3 6.1
2017-Jun-12 11:30N 29°48' W 092°07'3 5.9
2017-Jun-12 11:00N 29°47' W 092°10'2 4.9
2017-Jun-12 10:30N 29°47' W 092°13'3 5.5
2017-Jun-12 10:00N 29°48' W 092°16'3 6.1
2017-Jun-12 09:30N 29°50' W 092°19'2 4.4
2017-Jun-12 09:00N 29°51' W 092°21'40 5.7
2017-Jun-12 01:59N 29°56' W 093°07'3 5.4
2017-Jun-12 01:30N 29°56' W 093°10'3 5.7
2017-Jun-12 01:00N 29°58' W 093°12'3 5.5
2017-Jun-12 00:30N 30°00' W 093°14'2 3.6
2017-Jun-12 00:00N 30°02' W 093°15'2 4.3
2017-Jun-11 23:30N 30°04' W 093°16'2 4.2
2017-Jun-11 23:00N 30°05' W 093°18'1 1.9
2017-Jun-11 22:30N 30°06' W 093°18'0 0.1
2017-Jun-11 22:00N 30°06' W 093°18'0 0.0
2017-Jun-11 21:30N 30°06' W 093°18'0 0.1
2017-Jun-11 21:00N 30°06' W 093°18'2 4.1
2017-Jun-11 20:30N 30°05' W 093°20'2 3.1
2017-Jun-11 20:00N 30°04' W 093°21'1 2.4
2017-Jun-11 19:30N 30°04' W 093°23'2 4.5
2017-Jun-11 19:00N 30°04' W 093°25'3 5.7
2017-Jun-11 18:30N 30°04' W 093°28'3 5.7
2017-Jun-11 18:00N 30°04' W 093°32'3 5.7
2017-Jun-11 17:26N 30°04' W 093°36'3 6.3
2017-Jun-11 17:00N 30°04' W 093°39'3 6.6
2017-Jun-11 16:29N 30°03' W 093°43'  
2017-Jun-07 11:10N 29°20' W 094°50'1 8.5
2017-Jun-07 11:00N 29°21' W 094°49'9 7.5
2017-Jun-07 09:49N 29°29' W 094°52'3 8.7
2017-Jun-07 09:31N 29°32' W 094°54'4 9.0
2017-Jun-07 09:01N 29°35' W 094°56'5 9.5
2017-Jun-07 08:30N 29°40' W 094°59'4 8.9
2017-Jun-07 08:00N 29°44' W 095°01'4 8.2
2017-Jun-07 07:31N 29°46' W 095°05'0 0.4
2017-Jun-07 06:57N 29°46' W 095°05'0 0.0
2017-Jun-07 06:17N 29°46' W 095°05'0 0.1
2017-Jun-07 05:58N 29°46' W 095°05'1 0.1
2017-Jun-07 02:28N 29°45' W 095°06'1 0.7
2017-Jun-07 01:45N 29°46' W 095°05'1 5.0
2017-Jun-07 01:29N 29°45' W 095°04'4 7.7
2017-Jun-07 01:01N 29°43' W 095°01'4 9.0
2017-Jun-07 00:31N 29°39' W 094°58'3 5.9
2017-Jun-07 00:01N 29°37' W 095°00'1 1.3
2017-Jun-06 23:30N 29°37' W 095°01'0 0.0
2017-Jun-06 23:00N 29°37' W 095°01'0 0.0
2017-Jun-06 22:30N 29°37' W 095°01'0 0.0
2017-Jun-06 22:00N 29°37' W 095°01'0 0.0
2017-Jun-06 21:30N 29°37' W 095°01'0 0.0
2017-Jun-06 21:00N 29°37' W 095°01'0 0.0
2017-Jun-06 20:30N 29°37' W 095°01'0 0.0
2017-Jun-06 20:00N 29°37' W 095°01'0 0.0
2017-Jun-06 19:30N 29°37' W 095°01'0 0.0
2017-Jun-06 19:00N 29°37' W 095°01'0 0.0
2017-Jun-06 18:30N 29°37' W 095°01'0 0.0
2017-Jun-06 18:00N 29°37' W 095°01'0 0.0
2017-Jun-06 17:30N 29°37' W 095°01'0 0.0
2017-Jun-06 17:00N 29°37' W 095°01'0 0.0
2017-Jun-06 16:31N 29°37' W 095°01'0 0.0
2017-Jun-06 16:00N 29°37' W 095°01'0 0.0
2017-Jun-06 15:30N 29°37' W 095°01'0 0.0
2017-Jun-06 15:00N 29°37' W 095°01'0 0.0
2017-Jun-06 14:01N 29°37' W 095°01'0 0.0
2017-Jun-06 13:30N 29°37' W 095°01'0 0.0
2017-Jun-06 13:01N 29°37' W 095°01'0 0.0
2017-Jun-06 12:30N 29°37' W 095°01'0 0.0
2017-Jun-06 12:00N 29°37' W 095°01'0 0.1
2017-Jun-06 11:30N 29°36' W 095°01'0 0.0
2017-Jun-06 11:00N 29°36' W 095°01'0 0.0
2017-Jun-06 10:31N 29°36' W 095°01'0 0.0
2017-Jun-06 10:01N 29°36' W 095°01'0 0.0
2017-Jun-06 09:31N 29°36' W 095°01'0 0.0
2017-Jun-06 09:01N 29°36' W 095°01'0 0.0
2017-Jun-06 08:31N 29°36' W 095°01'2 3.6
2017-Jun-06 08:00N 29°37' W 094°59'4 7.4
2017-Jun-06 07:30N 29°35' W 094°56'5 9.1
2017-Jun-06 07:01N 29°31' W 094°53'10 8.3
2017-Jun-06 05:50N 29°22' W 094°47'  
Track history (hours):
 
Tides and Currents Weather Stations Pressure Air Temp Water Temp Dewpoint Dewpoint Depression Visibility Wind Speed Wind Dir Waves Ship Positions

Robert G. Stone, Jr.

Owner: Kirby Inland Marine, LP, Houston, TX. More information available from US FCC via Universal Licensing System and Coast Guard Vessel Documentation Center.

Last reported at 2017-Jun-13 09:01 UTC. Time now 2017-Jun-23 12:13 UTC.
Position N 29°34' W 090°31'.
Warning: this ship's position is 10 days out of date.

Length 118 m; draft 2.7 m.

Type: . MMSI: 367146780.

Date/timePositionNaut miles runAvg speedWind from/ knotsBaromVisibWave heightAir tempDewpointWater temp
2017-Jun-13 09:01N 29°34' W 090°31'0 6.3
2017-Jun-13 09:00N 29°34' W 090°31'3 6.2
2017-Jun-13 08:30N 29°34' W 090°34'2 4.9
2017-Jun-13 08:01N 29°35' W 090°37'3 5.5
2017-Jun-13 07:31N 29°36' W 090°40'2 4.5
2017-Jun-13 07:00N 29°37' W 090°42'2 4.2
2017-Jun-13 06:30N 29°35' W 090°43'2 4.2
2017-Jun-13 06:00N 29°34' W 090°45'3 6.2
2017-Jun-13 05:31N 29°32' W 090°48'4 7.4
2017-Jun-13 04:59N 29°32' W 090°52'3 6.4
2017-Jun-13 04:27N 29°34' W 090°56'54 3.5
2017-Jun-12 13:20N 29°51' W 091°54'4 6.3
2017-Jun-12 12:43N 29°50' W 091°59'1 6.3
2017-Jun-12 12:30N 29°50' W 092°00'3 6.1
2017-Jun-12 12:00N 29°49' W 092°04'3 6.1
2017-Jun-12 11:30N 29°48' W 092°07'3 5.9
2017-Jun-12 11:00N 29°47' W 092°10'2 4.9
2017-Jun-12 10:30N 29°47' W 092°13'3 5.5
2017-Jun-12 10:00N 29°48' W 092°16'3 6.1
2017-Jun-12 09:30N 29°50' W 092°19'2 4.4
2017-Jun-12 09:00N 29°51' W 092°21'40 5.7
2017-Jun-12 01:59N 29°56' W 093°07'3 5.4
2017-Jun-12 01:30N 29°56' W 093°10'3 5.7
2017-Jun-12 01:00N 29°58' W 093°12'3 5.5
2017-Jun-12 00:30N 30°00' W 093°14'2 3.6
2017-Jun-12 00:00N 30°02' W 093°15'2 4.3
2017-Jun-11 23:30N 30°04' W 093°16'2 4.2
2017-Jun-11 23:00N 30°05' W 093°18'1 1.9
2017-Jun-11 22:30N 30°06' W 093°18'0 0.1
2017-Jun-11 22:00N 30°06' W 093°18'0 0.0
2017-Jun-11 21:30N 30°06' W 093°18'0 0.1
2017-Jun-11 21:00N 30°06' W 093°18'2 4.1
2017-Jun-11 20:30N 30°05' W 093°20'2 3.1
2017-Jun-11 20:00N 30°04' W 093°21'1 2.4
2017-Jun-11 19:30N 30°04' W 093°23'2 4.5
2017-Jun-11 19:00N 30°04' W 093°25'3 5.7
2017-Jun-11 18:30N 30°04' W 093°28'3 5.7
2017-Jun-11 18:00N 30°04' W 093°32'3 5.7
2017-Jun-11 17:26N 30°04' W 093°36'3 6.3
2017-Jun-11 17:00N 30°04' W 093°39'3 6.6
2017-Jun-11 16:29N 30°03' W 093°43'  
2017-Jun-07 11:10N 29°20' W 094°50'1 8.5
2017-Jun-07 11:00N 29°21' W 094°49'9 7.5
2017-Jun-07 09:49N 29°29' W 094°52'3 8.7
2017-Jun-07 09:31N 29°32' W 094°54'4 9.0
2017-Jun-07 09:01N 29°35' W 094°56'5 9.5
2017-Jun-07 08:30N 29°40' W 094°59'4 8.9
2017-Jun-07 08:00N 29°44' W 095°01'4 8.2
2017-Jun-07 07:31N 29°46' W 095°05'0 0.4
2017-Jun-07 06:57N 29°46' W 095°05'0 0.0
2017-Jun-07 06:17N 29°46' W 095°05'0 0.1
2017-Jun-07 05:58N 29°46' W 095°05'1 0.1
2017-Jun-07 02:28N 29°45' W 095°06'1 0.7
2017-Jun-07 01:45N 29°46' W 095°05'1 5.0
2017-Jun-07 01:29N 29°45' W 095°04'4 7.7
2017-Jun-07 01:01N 29°43' W 095°01'4 9.0
2017-Jun-07 00:31N 29°39' W 094°58'3 5.9
2017-Jun-07 00:01N 29°37' W 095°00'1 1.3
2017-Jun-06 23:30N 29°37' W 095°01'0 0.0
2017-Jun-06 23:00N 29°37' W 095°01'0 0.0
2017-Jun-06 22:30N 29°37' W 095°01'0 0.0
2017-Jun-06 22:00N 29°37' W 095°01'0 0.0
2017-Jun-06 21:30N 29°37' W 095°01'0 0.0
2017-Jun-06 21:00N 29°37' W 095°01'0 0.0
2017-Jun-06 20:30N 29°37' W 095°01'0 0.0
2017-Jun-06 20:00N 29°37' W 095°01'0 0.0
2017-Jun-06 19:30N 29°37' W 095°01'0 0.0
2017-Jun-06 19:00N 29°37' W 095°01'0 0.0
2017-Jun-06 18:30N 29°37' W 095°01'0 0.0
2017-Jun-06 18:00N 29°37' W 095°01'0 0.0
2017-Jun-06 17:30N 29°37' W 095°01'0 0.0
2017-Jun-06 17:00N 29°37' W 095°01'0 0.0
2017-Jun-06 16:31N 29°37' W 095°01'0 0.0
2017-Jun-06 16:00N 29°37' W 095°01'0 0.0
2017-Jun-06 15:30N 29°37' W 095°01'0 0.0
2017-Jun-06 15:00N 29°37' W 095°01'0 0.0
2017-Jun-06 14:01N 29°37' W 095°01'0 0.0
2017-Jun-06 13:30N 29°37' W 095°01'0 0.0
2017-Jun-06 13:01N 29°37' W 095°01'0 0.0
2017-Jun-06 12:30N 29°37' W 095°01'0 0.0
2017-Jun-06 12:00N 29°37' W 095°01'0 0.1
2017-Jun-06 11:30N 29°36' W 095°01'0 0.0
2017-Jun-06 11:00N 29°36' W 095°01'0 0.0
2017-Jun-06 10:31N 29°36' W 095°01'0 0.0
2017-Jun-06 10:01N 29°36' W 095°01'0 0.0
2017-Jun-06 09:31N 29°36' W 095°01'0 0.0
2017-Jun-06 09:01N 29°36' W 095°01'0 0.0
2017-Jun-06 08:31N 29°36' W 095°01'2 3.6
2017-Jun-06 08:00N 29°37' W 094°59'4 7.4
2017-Jun-06 07:30N 29°35' W 094°56'5 9.1
2017-Jun-06 07:01N 29°31' W 094°53'10 8.3
2017-Jun-06 05:50N 29°22' W 094°47'  

Dump ship's entire track history